sensor_id;sensor_type;location;lat;lon;timestamp;P1;durP1;ratioP1;P2;durP2;ratioP2
13032;SDS011;6583;42.632;23.298;2023-11-19T00:00:12;3.20;;;2.90;;
13032;SDS011;6583;42.632;23.298;2023-11-19T00:02:39;3.20;;;2.90;;
13032;SDS011;6583;42.632;23.298;2023-11-19T00:05:06;3.87;;;3.17;;
13032;SDS011;6583;42.632;23.298;2023-11-19T00:07:35;3.37;;;3.07;;
13032;SDS011;6583;42.632;23.298;2023-11-19T00:10:02;3.40;;;3.10;;
13032;SDS011;6583;42.632;23.298;2023-11-19T00:12:32;2.93;;;2.73;;
13032;SDS011;6583;42.632;23.298;2023-11-19T00:15:00;3.10;;;2.80;;
13032;SDS011;6583;42.632;23.298;2023-11-19T00:17:27;4.87;;;3.67;;
13032;SDS011;6583;42.632;23.298;2023-11-19T00:19:53;3.30;;;3.00;;
13032;SDS011;6583;42.632;23.298;2023-11-19T00:22:20;2.63;;;2.43;;
13032;SDS011;6583;42.632;23.298;2023-11-19T00:24:47;2.80;;;2.60;;
13032;SDS011;6583;42.632;23.298;2023-11-19T00:27:15;3.07;;;2.73;;
13032;SDS011;6583;42.632;23.298;2023-11-19T00:29:42;3.00;;;2.80;;
13032;SDS011;6583;42.632;23.298;2023-11-19T00:32:11;2.80;;;2.60;;
13032;SDS011;6583;42.632;23.298;2023-11-19T00:34:38;3.27;;;3.07;;
13032;SDS011;6583;42.632;23.298;2023-11-19T00:37:04;3.23;;;2.93;;
13032;SDS011;6583;42.632;23.298;2023-11-19T00:39:31;3.40;;;3.10;;
13032;SDS011;6583;42.632;23.298;2023-11-19T00:41:58;2.83;;;2.63;;
13032;SDS011;6583;42.632;23.298;2023-11-19T00:44:25;3.20;;;2.90;;
13032;SDS011;6583;42.632;23.298;2023-11-19T00:46:52;3.20;;;2.90;;
13032;SDS011;6583;42.632;23.298;2023-11-19T00:49:20;3.10;;;2.90;;
13032;SDS011;6583;42.632;23.298;2023-11-19T00:51:46;3.20;;;2.90;;
13032;SDS011;6583;42.632;23.298;2023-11-19T00:54:14;3.13;;;2.83;;
13032;SDS011;6583;42.632;23.298;2023-11-19T00:56:40;3.07;;;2.53;;
13032;SDS011;6583;42.632;23.298;2023-11-19T00:59:07;3.43;;;3.13;;
13032;SDS011;6583;42.632;23.298;2023-11-19T01:01:34;3.53;;;3.23;;
13032;SDS011;6583;42.632;23.298;2023-11-19T01:04:01;3.57;;;2.70;;
13032;SDS011;6583;42.632;23.298;2023-11-19T01:06:29;3.60;;;3.07;;
13032;SDS011;6583;42.632;23.298;2023-11-19T01:08:56;3.43;;;3.13;;
13032;SDS011;6583;42.632;23.298;2023-11-19T01:11:24;3.20;;;2.90;;
13032;SDS011;6583;42.632;23.298;2023-11-19T01:13:51;2.83;;;2.57;;
13032;SDS011;6583;42.632;23.298;2023-11-19T01:16:18;3.10;;;2.87;;
13032;SDS011;6583;42.632;23.298;2023-11-19T01:18:46;3.07;;;2.80;;
13032;SDS011;6583;42.632;23.298;2023-11-19T01:21:13;3.33;;;2.93;;
13032;SDS011;6583;42.632;23.298;2023-11-19T01:23:42;3.07;;;2.83;;
13032;SDS011;6583;42.632;23.298;2023-11-19T01:26:09;2.90;;;2.67;;
13032;SDS011;6583;42.632;23.298;2023-11-19T01:28:37;3.10;;;2.80;;
13032;SDS011;6583;42.632;23.298;2023-11-19T01:31:04;3.10;;;2.63;;
13032;SDS011;6583;42.632;23.298;2023-11-19T01:33:33;3.30;;;3.00;;
13032;SDS011;6583;42.632;23.298;2023-11-19T01:36:01;2.87;;;2.60;;
13032;SDS011;6583;42.632;23.298;2023-11-19T01:38:29;3.27;;;2.97;;
13032;SDS011;6583;42.632;23.298;2023-11-19T01:40:57;3.20;;;2.90;;
13032;SDS011;6583;42.632;23.298;2023-11-19T01:43:34;3.23;;;2.93;;
13032;SDS011;6583;42.632;23.298;2023-11-19T01:46:01;3.07;;;2.77;;
13032;SDS011;6583;42.632;23.298;2023-11-19T01:48:29;3.10;;;2.80;;
13032;SDS011;6583;42.632;23.298;2023-11-19T01:50:57;3.63;;;2.70;;
13032;SDS011;6583;42.632;23.298;2023-11-19T01:53:25;3.47;;;2.80;;
13032;SDS011;6583;42.632;23.298;2023-11-19T01:55:52;3.00;;;2.70;;
13032;SDS011;6583;42.632;23.298;2023-11-19T01:58:20;4.57;;;2.93;;
13032;SDS011;6583;42.632;23.298;2023-11-19T02:00:47;2.80;;;2.37;;
13032;SDS011;6583;42.632;23.298;2023-11-19T02:03:14;2.60;;;2.40;;
13032;SDS011;6583;42.632;23.298;2023-11-19T02:05:41;2.70;;;2.50;;
13032;SDS011;6583;42.632;23.298;2023-11-19T02:08:08;2.77;;;2.57;;
13032;SDS011;6583;42.632;23.298;2023-11-19T02:10:37;2.70;;;2.50;;
13032;SDS011;6583;42.632;23.298;2023-11-19T02:13:04;2.80;;;2.60;;
13032;SDS011;6583;42.632;23.298;2023-11-19T02:15:33;2.60;;;2.40;;
13032;SDS011;6583;42.632;23.298;2023-11-19T02:18:17;2.60;;;2.40;;
13032;SDS011;6583;42.632;23.298;2023-11-19T02:20:44;2.57;;;2.33;;
13032;SDS011;6583;42.632;23.298;2023-11-19T02:23:11;2.67;;;2.47;;
13032;SDS011;6583;42.632;23.298;2023-11-19T02:25:39;2.93;;;2.57;;
13032;SDS011;6583;42.632;23.298;2023-11-19T02:28:08;2.30;;;2.10;;
13032;SDS011;6583;42.632;23.298;2023-11-19T02:30:37;4.63;;;2.87;;
13032;SDS011;6583;42.632;23.298;2023-11-19T02:33:03;2.70;;;2.40;;
13032;SDS011;6583;42.632;23.298;2023-11-19T02:35:31;2.43;;;2.23;;
13032;SDS011;6583;42.632;23.298;2023-11-19T02:37:59;2.60;;;2.37;;
13032;SDS011;6583;42.632;23.298;2023-11-19T02:40:26;3.13;;;2.53;;
13032;SDS011;6583;42.632;23.298;2023-11-19T02:42:53;2.70;;;2.50;;
13032;SDS011;6583;42.632;23.298;2023-11-19T02:45:22;2.73;;;2.50;;
13032;SDS011;6583;42.632;23.298;2023-11-19T02:47:50;2.70;;;2.50;;
13032;SDS011;6583;42.632;23.298;2023-11-19T02:50:17;2.50;;;2.30;;
13032;SDS011;6583;42.632;23.298;2023-11-19T02:52:50;2.30;;;2.10;;
13032;SDS011;6583;42.632;23.298;2023-11-19T02:55:18;2.33;;;2.20;;
13032;SDS011;6583;42.632;23.298;2023-11-19T02:57:46;2.47;;;2.27;;
13032;SDS011;6583;42.632;23.298;2023-11-19T03:00:14;2.40;;;2.20;;
13032;SDS011;6583;42.632;23.298;2023-11-19T03:02:43;2.27;;;2.00;;
13032;SDS011;6583;42.632;23.298;2023-11-19T03:05:13;2.60;;;2.40;;
13032;SDS011;6583;42.632;23.298;2023-11-19T03:07:40;2.60;;;2.40;;
13032;SDS011;6583;42.632;23.298;2023-11-19T03:10:09;2.33;;;2.13;;
13032;SDS011;6583;42.632;23.298;2023-11-19T03:12:38;2.43;;;2.23;;
13032;SDS011;6583;42.632;23.298;2023-11-19T03:15:06;2.73;;;2.10;;
13032;SDS011;6583;42.632;23.298;2023-11-19T03:17:35;2.67;;;2.47;;
13032;SDS011;6583;42.632;23.298;2023-11-19T03:20:04;2.60;;;2.40;;
13032;SDS011;6583;42.632;23.298;2023-11-19T03:22:32;2.30;;;2.10;;
13032;SDS011;6583;42.632;23.298;2023-11-19T03:24:59;2.73;;;2.20;;
13032;SDS011;6583;42.632;23.298;2023-11-19T03:27:26;3.17;;;2.60;;
13032;SDS011;6583;42.632;23.298;2023-11-19T03:29:53;2.30;;;2.10;;
13032;SDS011;6583;42.632;23.298;2023-11-19T03:32:20;2.67;;;2.47;;
13032;SDS011;6583;42.632;23.298;2023-11-19T03:34:46;2.43;;;2.23;;
13032;SDS011;6583;42.632;23.298;2023-11-19T03:37:14;2.40;;;2.20;;
13032;SDS011;6583;42.632;23.298;2023-11-19T03:39:42;2.30;;;2.10;;
13032;SDS011;6583;42.632;23.298;2023-11-19T03:42:09;2.77;;;2.57;;
13032;SDS011;6583;42.632;23.298;2023-11-19T03:44:37;4.03;;;2.50;;
13032;SDS011;6583;42.632;23.298;2023-11-19T03:47:04;3.07;;;2.53;;
13032;SDS011;6583;42.632;23.298;2023-11-19T03:49:31;2.43;;;2.23;;
13032;SDS011;6583;42.632;23.298;2023-11-19T03:51:57;2.90;;;2.47;;
13032;SDS011;6583;42.632;23.298;2023-11-19T03:54:26;2.70;;;2.50;;
13032;SDS011;6583;42.632;23.298;2023-11-19T03:56:53;2.70;;;2.50;;
13032;SDS011;6583;42.632;23.298;2023-11-19T03:59:19;2.60;;;2.10;;
13032;SDS011;6583;42.632;23.298;2023-11-19T04:01:46;2.60;;;2.03;;
13032;SDS011;6583;42.632;23.298;2023-11-19T04:04:13;2.70;;;2.43;;
13032;SDS011;6583;42.632;23.298;2023-11-19T04:06:40;2.60;;;2.33;;
13032;SDS011;6583;42.632;23.298;2023-11-19T04:09:06;2.80;;;2.50;;
13032;SDS011;6583;42.632;23.298;2023-11-19T04:11:35;3.43;;;2.93;;
13032;SDS011;6583;42.632;23.298;2023-11-19T04:14:04;2.90;;;2.43;;
13032;SDS011;6583;42.632;23.298;2023-11-19T04:16:31;3.07;;;2.60;;
13032;SDS011;6583;42.632;23.298;2023-11-19T04:18:58;2.40;;;2.20;;
13032;SDS011;6583;42.632;23.298;2023-11-19T04:21:24;2.50;;;2.30;;
13032;SDS011;6583;42.632;23.298;2023-11-19T04:23:52;3.13;;;2.53;;
13032;SDS011;6583;42.632;23.298;2023-11-19T04:26:18;2.57;;;2.03;;
13032;SDS011;6583;42.632;23.298;2023-11-19T04:28:46;2.60;;;2.40;;
13032;SDS011;6583;42.632;23.298;2023-11-19T04:31:14;2.47;;;2.17;;
13032;SDS011;6583;42.632;23.298;2023-11-19T04:33:41;2.50;;;2.30;;
13032;SDS011;6583;42.632;23.298;2023-11-19T04:36:08;2.50;;;2.30;;
13032;SDS011;6583;42.632;23.298;2023-11-19T04:38:36;2.60;;;2.40;;
13032;SDS011;6583;42.632;23.298;2023-11-19T04:41:03;3.37;;;2.60;;
13032;SDS011;6583;42.632;23.298;2023-11-19T04:43:31;2.50;;;2.30;;
13032;SDS011;6583;42.632;23.298;2023-11-19T04:45:59;2.73;;;2.53;;
13032;SDS011;6583;42.632;23.298;2023-11-19T04:48:26;1.93;;;1.77;;
13032;SDS011;6583;42.632;23.298;2023-11-19T04:50:53;2.53;;;2.33;;
13032;SDS011;6583;42.632;23.298;2023-11-19T04:53:19;4.40;;;2.13;;
13032;SDS011;6583;42.632;23.298;2023-11-19T04:55:46;2.50;;;2.30;;
13032;SDS011;6583;42.632;23.298;2023-11-19T04:58:13;2.57;;;2.37;;
13032;SDS011;6583;42.632;23.298;2023-11-19T05:00:40;2.97;;;2.67;;
13032;SDS011;6583;42.632;23.298;2023-11-19T05:03:08;3.33;;;2.63;;
13032;SDS011;6583;42.632;23.298;2023-11-19T05:05:35;3.07;;;2.77;;
13032;SDS011;6583;42.632;23.298;2023-11-19T05:08:02;2.63;;;2.43;;
13032;SDS011;6583;42.632;23.298;2023-11-19T05:10:28;3.03;;;2.40;;
13032;SDS011;6583;42.632;23.298;2023-11-19T05:12:55;3.20;;;2.57;;
13032;SDS011;6583;42.632;23.298;2023-11-19T05:15:21;3.37;;;2.80;;
13032;SDS011;6583;42.632;23.298;2023-11-19T05:17:49;3.57;;;2.30;;
13032;SDS011;6583;42.632;23.298;2023-11-19T05:20:17;2.77;;;2.40;;
13032;SDS011;6583;42.632;23.298;2023-11-19T05:22:44;2.90;;;2.33;;
13032;SDS011;6583;42.632;23.298;2023-11-19T05:25:11;2.87;;;2.67;;
13032;SDS011;6583;42.632;23.298;2023-11-19T05:27:38;3.00;;;2.50;;
13032;SDS011;6583;42.632;23.298;2023-11-19T05:30:05;2.60;;;2.40;;
13032;SDS011;6583;42.632;23.298;2023-11-19T05:32:33;2.43;;;2.13;;
13032;SDS011;6583;42.632;23.298;2023-11-19T05:35:00;3.00;;;2.70;;
13032;SDS011;6583;42.632;23.298;2023-11-19T05:37:28;2.73;;;2.43;;
13032;SDS011;6583;42.632;23.298;2023-11-19T05:39:55;2.40;;;2.20;;
13032;SDS011;6583;42.632;23.298;2023-11-19T05:42:21;2.90;;;2.47;;
13032;SDS011;6583;42.632;23.298;2023-11-19T05:44:49;3.00;;;2.70;;
13032;SDS011;6583;42.632;23.298;2023-11-19T05:47:17;2.77;;;2.43;;
13032;SDS011;6583;42.632;23.298;2023-11-19T05:49:43;3.10;;;2.80;;
13032;SDS011;6583;42.632;23.298;2023-11-19T05:52:10;2.70;;;2.30;;
13032;SDS011;6583;42.632;23.298;2023-11-19T05:54:38;6.33;;;3.97;;
13032;SDS011;6583;42.632;23.298;2023-11-19T05:57:05;5.30;;;4.27;;
13032;SDS011;6583;42.632;23.298;2023-11-19T05:59:34;3.03;;;2.40;;
13032;SDS011;6583;42.632;23.298;2023-11-19T06:02:01;3.83;;;2.90;;
13032;SDS011;6583;42.632;23.298;2023-11-19T06:04:28;3.27;;;2.43;;
13032;SDS011;6583;42.632;23.298;2023-11-19T06:06:55;3.30;;;2.80;;
13032;SDS011;6583;42.632;23.298;2023-11-19T06:09:22;3.67;;;2.77;;
13032;SDS011;6583;42.632;23.298;2023-11-19T06:11:50;3.17;;;2.67;;
13032;SDS011;6583;42.632;23.298;2023-11-19T06:14:17;3.70;;;2.70;;
13032;SDS011;6583;42.632;23.298;2023-11-19T06:16:44;2.53;;;2.33;;
13032;SDS011;6583;42.632;23.298;2023-11-19T06:19:11;4.30;;;2.93;;
13032;SDS011;6583;42.632;23.298;2023-11-19T06:21:38;2.93;;;2.63;;
13032;SDS011;6583;42.632;23.298;2023-11-19T06:24:05;2.70;;;2.50;;
13032;SDS011;6583;42.632;23.298;2023-11-19T06:26:32;2.90;;;2.60;;
13032;SDS011;6583;42.632;23.298;2023-11-19T06:29:00;3.13;;;2.60;;
13032;SDS011;6583;42.632;23.298;2023-11-19T06:31:26;3.33;;;2.73;;
13032;SDS011;6583;42.632;23.298;2023-11-19T06:33:53;3.17;;;2.87;;
13032;SDS011;6583;42.632;23.298;2023-11-19T06:36:20;2.90;;;2.60;;
13032;SDS011;6583;42.632;23.298;2023-11-19T06:38:47;3.03;;;2.60;;
13032;SDS011;6583;42.632;23.298;2023-11-19T06:41:14;3.23;;;2.40;;
13032;SDS011;6583;42.632;23.298;2023-11-19T06:43:40;2.60;;;2.40;;
13032;SDS011;6583;42.632;23.298;2023-11-19T06:46:15;3.83;;;3.00;;
13032;SDS011;6583;42.632;23.298;2023-11-19T06:48:42;3.00;;;2.70;;
13032;SDS011;6583;42.632;23.298;2023-11-19T06:51:10;3.50;;;3.00;;
13032;SDS011;6583;42.632;23.298;2023-11-19T06:53:36;3.17;;;2.80;;
13032;SDS011;6583;42.632;23.298;2023-11-19T06:56:05;2.60;;;2.40;;
13032;SDS011;6583;42.632;23.298;2023-11-19T06:58:35;2.73;;;2.30;;
13032;SDS011;6583;42.632;23.298;2023-11-19T07:01:03;2.77;;;2.53;;
13032;SDS011;6583;42.632;23.298;2023-11-19T07:03:34;3.20;;;2.90;;
13032;SDS011;6583;42.632;23.298;2023-11-19T07:06:01;3.37;;;2.70;;
13032;SDS011;6583;42.632;23.298;2023-11-19T07:08:28;3.87;;;2.90;;
13032;SDS011;6583;42.632;23.298;2023-11-19T07:10:55;5.33;;;3.17;;
13032;SDS011;6583;42.632;23.298;2023-11-19T07:13:22;3.20;;;2.90;;
13032;SDS011;6583;42.632;23.298;2023-11-19T07:15:49;3.40;;;2.97;;
13032;SDS011;6583;42.632;23.298;2023-11-19T07:18:16;3.20;;;2.80;;
13032;SDS011;6583;42.632;23.298;2023-11-19T07:20:44;3.53;;;2.80;;
13032;SDS011;6583;42.632;23.298;2023-11-19T07:23:11;4.00;;;3.10;;
13032;SDS011;6583;42.632;23.298;2023-11-19T07:25:41;4.97;;;3.60;;
13032;SDS011;6583;42.632;23.298;2023-11-19T07:28:10;5.47;;;3.10;;
13032;SDS011;6583;42.632;23.298;2023-11-19T07:30:37;6.33;;;3.27;;
13032;SDS011;6583;42.632;23.298;2023-11-19T07:33:04;10.27;;;3.80;;
13032;SDS011;6583;42.632;23.298;2023-11-19T07:35:31;3.13;;;2.60;;
13032;SDS011;6583;42.632;23.298;2023-11-19T07:37:59;3.00;;;2.70;;
13032;SDS011;6583;42.632;23.298;2023-11-19T07:40:26;4.40;;;2.90;;
13032;SDS011;6583;42.632;23.298;2023-11-19T07:42:53;2.83;;;2.60;;
13032;SDS011;6583;42.632;23.298;2023-11-19T07:45:20;2.83;;;2.60;;
13032;SDS011;6583;42.632;23.298;2023-11-19T07:47:47;3.40;;;3.00;;
13032;SDS011;6583;42.632;23.298;2023-11-19T07:50:13;3.13;;;2.83;;
13032;SDS011;6583;42.632;23.298;2023-11-19T07:52:42;3.60;;;3.30;;
13032;SDS011;6583;42.632;23.298;2023-11-19T07:55:10;5.63;;;3.23;;
13032;SDS011;6583;42.632;23.298;2023-11-19T07:57:37;4.57;;;3.40;;
13032;SDS011;6583;42.632;23.298;2023-11-19T08:00:04;3.43;;;2.80;;
13032;SDS011;6583;42.632;23.298;2023-11-19T08:02:32;4.13;;;3.23;;
13032;SDS011;6583;42.632;23.298;2023-11-19T08:04:59;3.17;;;2.87;;
13032;SDS011;6583;42.632;23.298;2023-11-19T08:07:25;3.47;;;3.03;;
13032;SDS011;6583;42.632;23.298;2023-11-19T08:09:52;3.20;;;2.90;;
13032;SDS011;6583;42.632;23.298;2023-11-19T08:12:20;3.73;;;3.13;;
13032;SDS011;6583;42.632;23.298;2023-11-19T08:14:47;3.23;;;2.93;;
13032;SDS011;6583;42.632;23.298;2023-11-19T08:17:14;4.33;;;3.40;;
13032;SDS011;6583;42.632;23.298;2023-11-19T08:19:41;4.37;;;3.27;;
13032;SDS011;6583;42.632;23.298;2023-11-19T08:22:08;3.80;;;3.37;;
13032;SDS011;6583;42.632;23.298;2023-11-19T08:24:35;3.43;;;3.13;;
13032;SDS011;6583;42.632;23.298;2023-11-19T08:27:01;4.63;;;4.10;;
13032;SDS011;6583;42.632;23.298;2023-11-19T08:29:30;5.27;;;4.20;;
13032;SDS011;6583;42.632;23.298;2023-11-19T08:31:56;4.83;;;3.60;;
13032;SDS011;6583;42.632;23.298;2023-11-19T08:34:23;3.83;;;3.20;;
13032;SDS011;6583;42.632;23.298;2023-11-19T08:36:50;4.60;;;3.63;;
13032;SDS011;6583;42.632;23.298;2023-11-19T08:39:18;3.80;;;3.30;;
13032;SDS011;6583;42.632;23.298;2023-11-19T08:41:46;3.43;;;2.90;;
13032;SDS011;6583;42.632;23.298;2023-11-19T08:44:12;4.43;;;4.03;;
13032;SDS011;6583;42.632;23.298;2023-11-19T08:46:47;4.90;;;4.00;;
13032;SDS011;6583;42.632;23.298;2023-11-19T08:49:14;3.73;;;3.23;;
13032;SDS011;6583;42.632;23.298;2023-11-19T08:51:40;3.83;;;3.30;;
13032;SDS011;6583;42.632;23.298;2023-11-19T08:54:07;2.97;;;2.60;;
13032;SDS011;6583;42.632;23.298;2023-11-19T08:56:34;3.80;;;3.23;;
13032;SDS011;6583;42.632;23.298;2023-11-19T08:59:01;4.10;;;3.70;;
13032;SDS011;6583;42.632;23.298;2023-11-19T09:01:29;4.00;;;3.30;;
13032;SDS011;6583;42.632;23.298;2023-11-19T09:03:57;4.27;;;3.47;;
13032;SDS011;6583;42.632;23.298;2023-11-19T09:06:24;3.80;;;3.40;;
13032;SDS011;6583;42.632;23.298;2023-11-19T09:08:50;3.13;;;2.70;;
13032;SDS011;6583;42.632;23.298;2023-11-19T09:11:17;3.90;;;3.50;;
13032;SDS011;6583;42.632;23.298;2023-11-19T09:13:44;3.07;;;2.77;;
13032;SDS011;6583;42.632;23.298;2023-11-19T09:16:11;4.07;;;3.40;;
13032;SDS011;6583;42.632;23.298;2023-11-19T09:18:38;2.50;;;2.23;;
13032;SDS011;6583;42.632;23.298;2023-11-19T09:21:06;4.20;;;3.30;;
13032;SDS011;6583;42.632;23.298;2023-11-19T09:23:33;2.87;;;2.60;;
13032;SDS011;6583;42.632;23.298;2023-11-19T09:26:04;4.37;;;3.40;;
13032;SDS011;6583;42.632;23.298;2023-11-19T09:28:31;3.60;;;3.10;;
13032;SDS011;6583;42.632;23.298;2023-11-19T09:30:58;3.13;;;2.57;;
13032;SDS011;6583;42.632;23.298;2023-11-19T09:33:25;3.47;;;2.80;;
13032;SDS011;6583;42.632;23.298;2023-11-19T09:35:52;3.33;;;3.03;;
13032;SDS011;6583;42.632;23.298;2023-11-19T09:38:20;4.17;;;2.97;;
13032;SDS011;6583;42.632;23.298;2023-11-19T09:40:47;1.93;;;1.80;;
13032;SDS011;6583;42.632;23.298;2023-11-19T09:43:14;2.87;;;2.57;;
13032;SDS011;6583;42.632;23.298;2023-11-19T09:45:44;4.50;;;3.40;;
13032;SDS011;6583;42.632;23.298;2023-11-19T09:48:15;3.73;;;2.23;;
13032;SDS011;6583;42.632;23.298;2023-11-19T09:50:43;3.57;;;2.23;;
13032;SDS011;6583;42.632;23.298;2023-11-19T09:53:10;3.83;;;3.13;;
13032;SDS011;6583;42.632;23.298;2023-11-19T09:55:39;4.63;;;3.53;;
13032;SDS011;6583;42.632;23.298;2023-11-19T09:58:07;1.90;;;1.73;;
13032;SDS011;6583;42.632;23.298;2023-11-19T10:00:34;2.93;;;2.37;;
13032;SDS011;6583;42.632;23.298;2023-11-19T10:03:01;4.43;;;3.70;;
13032;SDS011;6583;42.632;23.298;2023-11-19T10:05:30;3.67;;;3.30;;
13032;SDS011;6583;42.632;23.298;2023-11-19T10:07:57;4.40;;;3.40;;
13032;SDS011;6583;42.632;23.298;2023-11-19T10:10:24;4.10;;;3.70;;
13032;SDS011;6583;42.632;23.298;2023-11-19T10:12:52;2.53;;;1.97;;
13032;SDS011;6583;42.632;23.298;2023-11-19T10:15:20;2.67;;;2.47;;
13032;SDS011;6583;42.632;23.298;2023-11-19T10:17:49;3.13;;;2.83;;
13032;SDS011;6583;42.632;23.298;2023-11-19T10:20:16;3.13;;;2.83;;
13032;SDS011;6583;42.632;23.298;2023-11-19T10:22:43;2.57;;;2.33;;
13032;SDS011;6583;42.632;23.298;2023-11-19T10:25:21;2.80;;;1.97;;
13032;SDS011;6583;42.632;23.298;2023-11-19T10:27:49;3.47;;;3.07;;
13032;SDS011;6583;42.632;23.298;2023-11-19T10:30:18;3.60;;;3.20;;
13032;SDS011;6583;42.632;23.298;2023-11-19T10:32:54;4.57;;;2.90;;
13032;SDS011;6583;42.632;23.298;2023-11-19T10:35:29;2.80;;;2.47;;
13032;SDS011;6583;42.632;23.298;2023-11-19T10:37:58;3.00;;;2.70;;
13032;SDS011;6583;42.632;23.298;2023-11-19T10:40:29;3.00;;;2.60;;
13032;SDS011;6583;42.632;23.298;2023-11-19T10:43:05;2.53;;;2.33;;
13032;SDS011;6583;42.632;23.298;2023-11-19T10:45:34;2.70;;;2.47;;
13032;SDS011;6583;42.632;23.298;2023-11-19T10:48:01;2.53;;;2.33;;
13032;SDS011;6583;42.632;23.298;2023-11-19T10:50:31;3.27;;;2.33;;
13032;SDS011;6583;42.632;23.298;2023-11-19T10:52:58;3.43;;;2.53;;
13032;SDS011;6583;42.632;23.298;2023-11-19T10:55:26;3.37;;;2.00;;
13032;SDS011;6583;42.632;23.298;2023-11-19T10:57:55;2.87;;;2.40;;
13032;SDS011;6583;42.632;23.298;2023-11-19T11:00:26;4.43;;;2.60;;
13032;SDS011;6583;42.632;23.298;2023-11-19T11:03:01;2.47;;;2.27;;
13032;SDS011;6583;42.632;23.298;2023-11-19T11:05:32;3.70;;;2.20;;
13032;SDS011;6583;42.632;23.298;2023-11-19T11:08:00;2.30;;;2.10;;
13032;SDS011;6583;42.632;23.298;2023-11-19T11:10:26;2.13;;;1.90;;
13032;SDS011;6583;42.632;23.298;2023-11-19T11:12:56;2.73;;;1.57;;
13032;SDS011;6583;42.632;23.298;2023-11-19T11:15:26;2.50;;;2.30;;
13032;SDS011;6583;42.632;23.298;2023-11-19T11:17:59;2.63;;;2.40;;
13032;SDS011;6583;42.632;23.298;2023-11-19T11:20:28;2.63;;;2.43;;
13032;SDS011;6583;42.632;23.298;2023-11-19T11:23:03;2.13;;;1.93;;
13032;SDS011;6583;42.632;23.298;2023-11-19T11:25:49;2.57;;;2.30;;
13032;SDS011;6583;42.632;23.298;2023-11-19T11:28:26;2.30;;;2.10;;
13032;SDS011;6583;42.632;23.298;2023-11-19T11:31:03;2.70;;;1.90;;
13032;SDS011;6583;42.632;23.298;2023-11-19T11:36:41;3.60;;;1.83;;
13032;SDS011;6583;42.632;23.298;2023-11-19T11:39:15;2.60;;;2.27;;
13032;SDS011;6583;42.632;23.298;2023-11-19T11:41:44;1.87;;;1.60;;
13032;SDS011;6583;42.632;23.298;2023-11-19T11:44:11;1.67;;;1.57;;
13032;SDS011;6583;42.632;23.298;2023-11-19T11:46:56;2.30;;;2.10;;
13032;SDS011;6583;42.632;23.298;2023-11-19T11:49:27;1.73;;;1.63;;
13032;SDS011;6583;42.632;23.298;2023-11-19T11:51:58;2.10;;;1.90;;
13032;SDS011;6583;42.632;23.298;2023-11-19T11:54:31;2.37;;;2.10;;
13032;SDS011;6583;42.632;23.298;2023-11-19T11:57:03;2.00;;;1.90;;
13032;SDS011;6583;42.632;23.298;2023-11-19T11:59:36;1.77;;;1.67;;
13032;SDS011;6583;42.632;23.298;2023-11-19T12:02:04;1.50;;;1.40;;
13032;SDS011;6583;42.632;23.298;2023-11-19T12:04:36;1.70;;;1.60;;
13032;SDS011;6583;42.632;23.298;2023-11-19T12:07:04;1.83;;;1.60;;
13032;SDS011;6583;42.632;23.298;2023-11-19T12:09:31;2.33;;;1.93;;
13032;SDS011;6583;42.632;23.298;2023-11-19T12:12:07;1.60;;;1.50;;
13032;SDS011;6583;42.632;23.298;2023-11-19T12:17:41;6.17;;;2.30;;
13032;SDS011;6583;42.632;23.298;2023-11-19T12:20:14;3.77;;;2.47;;
13032;SDS011;6583;42.632;23.298;2023-11-19T12:22:42;1.83;;;1.37;;
13032;SDS011;6583;42.632;23.298;2023-11-19T12:25:10;3.73;;;2.40;;
13032;SDS011;6583;42.632;23.298;2023-11-19T12:27:39;3.10;;;2.33;;
13032;SDS011;6583;42.632;23.298;2023-11-19T12:30:07;5.00;;;3.30;;
13032;SDS011;6583;42.632;23.298;2023-11-19T12:32:38;3.67;;;2.50;;
13032;SDS011;6583;42.632;23.298;2023-11-19T12:35:06;4.83;;;1.77;;
13032;SDS011;6583;42.632;23.298;2023-11-19T12:37:41;3.33;;;2.60;;
13032;SDS011;6583;42.632;23.298;2023-11-19T12:40:13;3.10;;;2.60;;
13032;SDS011;6583;42.632;23.298;2023-11-19T12:42:42;2.43;;;2.10;;
13032;SDS011;6583;42.632;23.298;2023-11-19T12:45:09;2.30;;;1.80;;
13032;SDS011;6583;42.632;23.298;2023-11-19T12:47:37;2.10;;;1.80;;
13032;SDS011;6583;42.632;23.298;2023-11-19T12:50:05;3.33;;;2.10;;
13032;SDS011;6583;42.632;23.298;2023-11-19T12:52:33;3.30;;;2.67;;
13032;SDS011;6583;42.632;23.298;2023-11-19T12:55:02;3.10;;;2.10;;
13032;SDS011;6583;42.632;23.298;2023-11-19T12:57:38;2.33;;;2.10;;
13032;SDS011;6583;42.632;23.298;2023-11-19T13:00:06;2.60;;;2.17;;
13032;SDS011;6583;42.632;23.298;2023-11-19T13:02:45;2.63;;;2.10;;
13032;SDS011;6583;42.632;23.298;2023-11-19T13:05:23;2.80;;;2.40;;
13032;SDS011;6583;42.632;23.298;2023-11-19T13:07:51;3.40;;;2.13;;
13032;SDS011;6583;42.632;23.298;2023-11-19T13:10:25;2.53;;;1.97;;
13032;SDS011;6583;42.632;23.298;2023-11-19T13:13:05;2.37;;;1.40;;
13032;SDS011;6583;42.632;23.298;2023-11-19T13:15:33;1.67;;;1.40;;
13032;SDS011;6583;42.632;23.298;2023-11-19T13:18:01;2.53;;;2.00;;
13032;SDS011;6583;42.632;23.298;2023-11-19T13:20:29;2.23;;;1.67;;
13032;SDS011;6583;42.632;23.298;2023-11-19T13:22:57;1.63;;;1.40;;
13032;SDS011;6583;42.632;23.298;2023-11-19T13:25:26;2.30;;;1.90;;
13032;SDS011;6583;42.632;23.298;2023-11-19T13:27:55;2.33;;;1.80;;
13032;SDS011;6583;42.632;23.298;2023-11-19T13:30:22;1.70;;;1.60;;
13032;SDS011;6583;42.632;23.298;2023-11-19T13:32:50;2.20;;;1.80;;
13032;SDS011;6583;42.632;23.298;2023-11-19T13:35:17;2.70;;;2.03;;
13032;SDS011;6583;42.632;23.298;2023-11-19T13:37:45;2.63;;;1.97;;
13032;SDS011;6583;42.632;23.298;2023-11-19T13:40:12;1.97;;;1.77;;
13032;SDS011;6583;42.632;23.298;2023-11-19T13:42:42;1.40;;;1.30;;
13032;SDS011;6583;42.632;23.298;2023-11-19T13:45:09;2.43;;;2.00;;
13032;SDS011;6583;42.632;23.298;2023-11-19T13:47:38;1.50;;;1.40;;
13032;SDS011;6583;42.632;23.298;2023-11-19T13:50:07;1.70;;;1.60;;
13032;SDS011;6583;42.632;23.298;2023-11-19T13:52:35;2.10;;;1.50;;
13032;SDS011;6583;42.632;23.298;2023-11-19T13:55:04;2.03;;;1.70;;
13032;SDS011;6583;42.632;23.298;2023-11-19T13:57:33;1.87;;;1.67;;
13032;SDS011;6583;42.632;23.298;2023-11-19T14:00:02;1.40;;;1.30;;
13032;SDS011;6583;42.632;23.298;2023-11-19T14:02:32;1.47;;;1.37;;
13032;SDS011;6583;42.632;23.298;2023-11-19T14:04:59;2.93;;;1.70;;
13032;SDS011;6583;42.632;23.298;2023-11-19T14:07:25;1.93;;;1.60;;
13032;SDS011;6583;42.632;23.298;2023-11-19T14:09:52;1.60;;;1.50;;
13032;SDS011;6583;42.632;23.298;2023-11-19T14:12:20;2.00;;;1.10;;
13032;SDS011;6583;42.632;23.298;2023-11-19T14:14:48;1.80;;;1.30;;
13032;SDS011;6583;42.632;23.298;2023-11-19T14:17:16;1.17;;;1.07;;
13032;SDS011;6583;42.632;23.298;2023-11-19T14:19:43;1.27;;;1.20;;
13032;SDS011;6583;42.632;23.298;2023-11-19T14:22:10;2.20;;;1.13;;
13032;SDS011;6583;42.632;23.298;2023-11-19T14:24:37;1.87;;;1.60;;
13032;SDS011;6583;42.632;23.298;2023-11-19T14:27:05;1.30;;;1.20;;
13032;SDS011;6583;42.632;23.298;2023-11-19T14:29:33;1.63;;;1.17;;
13032;SDS011;6583;42.632;23.298;2023-11-19T14:32:00;1.40;;;1.17;;
13032;SDS011;6583;42.632;23.298;2023-11-19T14:34:29;1.40;;;1.13;;
13032;SDS011;6583;42.632;23.298;2023-11-19T14:36:56;1.20;;;1.10;;
13032;SDS011;6583;42.632;23.298;2023-11-19T14:39:23;1.47;;;1.30;;
13032;SDS011;6583;42.632;23.298;2023-11-19T14:41:50;1.50;;;1.30;;
13032;SDS011;6583;42.632;23.298;2023-11-19T14:44:18;2.47;;;1.13;;
13032;SDS011;6583;42.632;23.298;2023-11-19T14:46:46;1.40;;;1.20;;
13032;SDS011;6583;42.632;23.298;2023-11-19T14:49:13;2.40;;;1.00;;
13032;SDS011;6583;42.632;23.298;2023-11-19T14:51:41;0.93;;;0.90;;
13032;SDS011;6583;42.632;23.298;2023-11-19T14:54:08;3.57;;;1.00;;
13032;SDS011;6583;42.632;23.298;2023-11-19T14:56:35;1.13;;;1.00;;
13032;SDS011;6583;42.632;23.298;2023-11-19T14:59:04;1.20;;;1.10;;